Time;durP1;ratioP1;P1;durP2;ratioP2;P2;SDS_P1;SDS_P2;PMS_P1;PMS_P2;Temp;Humidity;BMP_temperature;BMP_pressure;BME280_temperature;BME280_humidity;BME280_pressure;Samples;Min_cycle;Max_cycle;Signal;HPM_P1;HPM_P2
2022/03/06 00:00:59;;;;;;;31.65;11.98;;;;;;;5.48;43.68;102262.88;5012600;28;123888;-62
2022/03/06 00:03:26;;;;;;;27.88;12.23;;;;;;;5.46;43.71;102269.91;5014583;28;109306;-62
2022/03/06 00:05:53;;;;;;;28.23;11.60;;;;;;;5.43;44.04;102272.53;5014599;28;110182;-62
2022/03/06 00:08:21;;;;;;;32.00;11.90;;;;;;;5.40;43.98;102280.41;5014404;28;123849;-62
2022/03/06 00:10:49;;;;;;;26.42;11.93;;;;;;;5.38;43.77;102283.03;5013415;28;122907;-62
2022/03/06 00:13:16;;;;;;;27.00;11.75;;;;;;;5.38;43.90;102282.16;5013969;28;109021;-62
2022/03/06 00:15:44;;;;;;;28.08;11.70;;;;;;;5.36;44.03;102289.19;5013633;28;109698;-63
2022/03/06 00:18:11;;;;;;;26.05;11.50;;;;;;;5.33;43.82;102283.91;5013444;28;124014;-62
2022/03/06 00:20:41;;;;;;;28.77;12.52;;;;;;;5.30;43.91;102284.81;5012254;28;123933;-63
2022/03/06 00:23:08;;;;;;;27.17;11.30;;;;;;;5.26;44.06;102283.91;5014470;28;110085;-63
2022/03/06 00:25:35;;;;;;;28.08;11.13;;;;;;;5.24;44.13;102284.81;5012700;28;110095;-62
2022/03/06 00:28:02;;;;;;;25.75;11.23;;;;;;;5.21;43.94;102290.03;5012807;28;124816;-62
2022/03/06 00:30:29;;;;;;;29.05;11.32;;;;;;;5.18;44.42;102290.94;5013016;28;122847;-62
2022/03/06 00:32:57;;;;;;;28.77;11.68;;;;;;;5.18;44.13;102292.66;5013701;28;109172;-63
2022/03/06 00:35:26;;;;;;;27.58;11.23;;;;;;;5.17;44.21;102294.41;5010943;28;109776;-63
2022/03/06 00:37:53;;;;;;;30.20;11.68;;;;;;;5.15;44.05;102300.56;5011716;28;124161;-63
2022/03/06 00:40:21;;;;;;;29.13;12.48;;;;;;;5.12;44.21;102295.28;5013178;28;123045;-63
2022/03/06 00:42:48;;;;;;;26.73;11.40;;;;;;;5.11;44.22;102304.94;5013148;28;109548;-63
2022/03/06 00:45:15;;;;;;;29.15;12.38;;;;;;;5.09;44.03;102305.81;5013743;28;110194;-63
2022/03/06 00:47:42;;;;;;;25.60;10.82;;;;;;;5.06;44.63;102306.66;5011308;28;124441;-63
2022/03/06 00:50:10;;;;;;;24.65;11.25;;;;;;;5.04;44.32;102308.41;5010707;28;123559;-63
2022/03/06 00:52:39;;;;;;;27.20;11.68;;;;;;;5.04;44.45;102313.66;5012559;28;109071;-63
2022/03/06 00:55:08;;;;;;;26.00;11.65;;;;;;;5.02;44.46;102310.16;4997131;28;109076;-62
2022/03/06 00:57:35;;;;;;;28.77;11.98;;;;;;;5.01;44.42;102305.78;5011563;28;125352;-62
2022/03/06 01:00:05;;;;;;;27.08;11.35;;;;;;;4.98;44.37;102311.03;5012787;28;123699;-63
2022/03/06 01:02:32;;;;;;;29.92;12.50;;;;;;;4.97;44.42;102318.03;5014159;28;109517;-62
2022/03/06 01:05:00;;;;;;;31.17;12.45;;;;;;;4.94;44.52;102312.78;5011842;28;110965;-63
2022/03/06 01:07:27;;;;;;;27.83;12.32;;;;;;;4.94;44.56;102322.41;5013095;28;123344;-62
2022/03/06 01:09:54;;;;;;;29.55;12.65;;;;;;;4.91;44.55;102323.25;5011454;28;124312;-62
2022/03/06 01:12:21;;;;;;;28.75;11.88;;;;;;;4.87;44.45;102332.88;5011562;28;110580;-63
2022/03/06 01:14:49;;;;;;;28.38;11.65;;;;;;;4.84;44.45;102327.63;5011799;28;109971;-63
2022/03/06 01:17:17;;;;;;;28.90;12.25;;;;;;;4.83;44.62;102325.88;5013861;28;124305;-63
2022/03/06 01:19:44;;;;;;;28.63;11.65;;;;;;;4.81;44.41;102322.38;5010742;28;123939;-63
2022/03/06 01:22:11;;;;;;;29.95;12.18;;;;;;;4.77;44.73;102325.84;5011949;28;109031;-62
2022/03/06 01:24:38;;;;;;;28.40;12.63;;;;;;;4.74;44.61;102338.97;5012628;28;110307;-63
2022/03/06 01:27:06;;;;;;;27.50;12.43;;;;;;;4.72;44.81;102327.59;5012008;28;124032;-62
2022/03/06 01:29:33;;;;;;;24.77;12.15;;;;;;;4.69;44.70;102338.09;5010869;28;124718;-63
2022/03/06 01:32:00;;;;;;;27.02;12.32;;;;;;;4.66;45.09;102338.06;5009063;28;109290;-62
2022/03/06 01:34:27;;;;;;;30.55;12.43;;;;;;;4.65;45.02;102336.31;5006703;28;110287;-63
2022/03/06 01:36:55;;;;;;;28.10;12.05;;;;;;;4.62;44.93;102341.56;5006438;28;124469;-63
2022/03/06 01:39:22;;;;;;;26.92;11.68;;;;;;;4.59;45.07;102336.28;4992204;28;124559;-63
2022/03/06 01:41:49;;;;;;;25.85;12.07;;;;;;;4.57;45.01;102338.03;4992770;28;109725;-63
2022/03/06 01:44:16;;;;;;;27.58;11.40;;;;;;;4.54;45.15;102332.75;4992938;28;109064;-63
2022/03/06 01:46:47;;;;;;;26.08;11.70;;;;;;;4.52;45.17;102339.75;4992395;28;123713;-62
2022/03/06 01:49:15;;;;;;;29.88;12.88;;;;;;;4.49;45.12;102335.38;4990607;28;124054;-62
2022/03/06 01:51:43;;;;;;;27.77;11.73;;;;;;;4.47;45.33;102332.75;4992292;28;108183;-62
2022/03/06 01:54:10;;;;;;;26.85;12.05;;;;;;;4.45;45.18;102334.47;4992908;28;109938;-63
2022/03/06 01:56:37;;;;;;;26.35;11.57;;;;;;;4.43;45.29;102330.97;4990596;28;124734;-62
2022/03/06 01:59:05;;;;;;;27.30;11.88;;;;;;;4.40;45.17;102336.19;4992012;28;123047;-63
2022/03/06 02:01:32;;;;;;;24.65;11.43;;;;;;;4.37;45.36;102336.22;4990981;28;110806;-62
2022/03/06 02:03:59;;;;;;;26.85;11.50;;;;;;;4.35;45.20;102337.94;4993516;28;109688;-62
2022/03/06 02:06:27;;;;;;;25.67;11.30;;;;;;;4.31;45.34;102344.03;4990539;28;123819;-62
2022/03/06 02:08:55;;;;;;;28.00;12.20;;;;;;;4.28;45.61;102341.41;4992579;28;124276;-63
2022/03/06 02:11:22;;;;;;;27.67;12.20;;;;;;;4.26;45.45;102343.16;4990053;28;109141;-62
2022/03/06 02:13:50;;;;;;;28.40;12.20;;;;;;;4.25;45.54;102346.63;4993444;28;109834;-62
2022/03/06 02:16:17;;;;;;;25.23;11.15;;;;;;;4.20;45.52;102341.38;4990335;28;124437;-62
2022/03/06 02:18:44;;;;;;;26.67;11.45;;;;;;;4.20;45.73;102343.09;4990563;28;124636;-63
2022/03/06 02:21:14;;;;;;;26.20;11.30;;;;;;;4.16;45.37;102346.56;4990213;28;109706;-62
2022/03/06 02:23:41;;;;;;;26.48;11.52;;;;;;;4.13;45.67;102342.19;4992801;28;110311;-62
2022/03/06 02:26:09;;;;;;;26.15;11.10;;;;;;;4.10;45.65;102343.03;4990745;28;124069;-62
2022/03/06 02:28:37;;;;;;;27.52;11.57;;;;;;;4.07;45.63;102348.28;4990909;28;124666;-62
2022/03/06 02:31:04;;;;;;;26.23;11.00;;;;;;;4.04;45.87;102353.50;4989713;28;109015;-62
2022/03/06 02:33:31;;;;;;;30.23;11.02;;;;;;;4.03;45.90;102351.75;4992291;28;109963;-63
2022/03/06 02:35:58;;;;;;;25.52;11.00;;;;;;;4.02;45.82;102349.97;4990132;28;123932;-63
2022/03/06 02:38:25;;;;;;;25.92;11.07;;;;;;;4.01;45.74;102353.50;4991146;28;124299;-62
2022/03/06 02:40:53;;;;;;;26.75;11.15;;;;;;;3.99;45.91;102355.19;4992261;28;109164;-62
2022/03/06 02:43:21;;;;;;;23.40;10.38;;;;;;;3.97;46.00;102356.94;4992106;28;110505;-62
2022/03/06 02:45:48;;;;;;;23.25;10.50;;;;;;;3.95;46.02;102353.44;4989842;28;124078;-63
2022/03/06 02:48:15;;;;;;;25.90;11.65;;;;;;;3.94;46.13;102359.56;4993621;28;123511;-63
2022/03/06 02:50:43;;;;;;;23.40;10.35;;;;;;;3.92;45.87;102356.03;4995200;28;110592;-62
2022/03/06 02:53:11;;;;;;;25.90;11.20;;;;;;;3.91;46.08;102356.91;4995230;28;110172;-62
2022/03/06 02:55:40;;;;;;;23.70;10.27;;;;;;;3.89;46.31;102353.38;4993659;28;124034;-62
2022/03/06 02:58:07;;;;;;;23.77;9.90;;;;;;;3.88;46.17;102356.88;4994394;28;124209;-62
2022/03/06 03:00:34;;;;;;;24.23;11.10;;;;;;;3.87;46.04;102355.13;4994835;28;109659;-62
2022/03/06 03:03:02;;;;;;;24.27;10.48;;;;;;;3.84;46.34;102355.09;4994794;28;109866;-63
2022/03/06 03:05:29;;;;;;;27.63;10.57;;;;;;;3.83;46.45;102353.34;4993169;28;124103;-62
2022/03/06 03:07:57;;;;;;;25.60;11.23;;;;;;;3.83;46.21;102354.22;5001912;28;123909;-63
2022/03/06 03:10:25;;;;;;;22.48;10.18;;;;;;;3.81;46.16;102349.84;5012149;28;109525;-63
2022/03/06 03:12:53;;;;;;;24.58;10.65;;;;;;;3.80;46.36;102354.19;5014678;28;109960;-63
2022/03/06 03:15:21;;;;;;;26.60;10.63;;;;;;;3.78;46.28;102355.94;5012813;28;124028;-62
2022/03/06 03:17:49;;;;;;;24.55;10.60;;;;;;;3.79;46.50;102356.81;5012809;28;124702;-63
2022/03/06 03:20:17;;;;;;;26.92;10.85;;;;;;;3.77;46.72;102362.03;5015532;28;109204;-62
2022/03/06 03:22:45;;;;;;;23.23;10.23;;;;;;;3.76;46.42;102362.03;5014727;28;109202;-62
2022/03/06 03:25:12;;;;;;;25.67;10.77;;;;;;;3.75;46.58;102361.16;5012565;28;123857;-63
2022/03/06 03:27:40;;;;;;;21.88;10.82;;;;;;;3.74;46.46;102362.00;5014141;28;124193;-63
2022/03/06 03:30:09;;;;;;;21.88;9.82;;;;;;;3.73;46.44;102356.75;5014475;28;109672;-62
2022/03/06 03:32:37;;;;;;;23.23;10.48;;;;;;;3.75;46.52;102365.50;5015715;28;107846;-64
2022/03/06 03:35:05;;;;;;;23.10;10.82;;;;;;;3.74;46.54;102363.75;5015605;28;124562;-63
2022/03/06 03:37:33;;;;;;;25.33;10.63;;;;;;;3.73;46.63;102359.38;5014339;28;122626;-63
2022/03/06 03:40:01;;;;;;;24.95;10.80;;;;;;;3.73;46.69;102362.00;5012221;28;111132;-62
2022/03/06 03:42:28;;;;;;;24.70;10.95;;;;;;;3.72;46.61;102360.25;5015179;28;110473;-63
2022/03/06 03:44:55;;;;;;;20.85;10.02;;;;;;;3.70;46.70;102363.72;5012853;28;124007;-62
2022/03/06 03:47:22;;;;;;;22.10;10.25;;;;;;;3.70;46.52;102373.34;5012658;28;125214;-63
2022/03/06 03:49:50;;;;;;;24.25;10.38;;;;;;;3.67;46.58;102366.34;5012251;28;109016;-62
2022/03/06 03:52:17;;;;;;;23.55;10.23;;;;;;;3.65;46.59;102365.41;5013806;28;109821;-62
2022/03/06 03:54:44;;;;;;;23.55;11.02;;;;;;;3.64;46.65;102363.69;5012262;28;124180;-62
2022/03/06 03:57:13;;;;;;;22.08;10.60;;;;;;;3.63;46.50;102361.91;5014692;28;124166;-62
2022/03/06 03:59:42;;;;;;;21.67;10.00;;;;;;;3.62;46.58;102370.66;5014529;28;109234;-62
2022/03/06 04:02:09;;;;;;;21.52;9.73;;;;;;;3.61;46.65;102368.03;5015042;28;110094;-62
2022/03/06 04:04:37;;;;;;;23.83;10.35;;;;;;;3.59;46.74;102370.63;5012141;28;124232;-62
2022/03/06 04:07:04;;;;;;;20.52;10.05;;;;;;;3.57;46.67;102377.59;5013372;28;123709;-62
2022/03/06 04:09:32;;;;;;;25.00;10.63;;;;;;;3.55;46.51;102374.09;5014304;28;109639;-63
2022/03/06 04:11:59;;;;;;;24.27;10.63;;;;;;;3.53;46.92;102375.81;4996722;28;109049;-63
2022/03/06 04:14:26;;;;;;;22.00;10.45;;;;;;;3.52;46.84;102389.75;5014504;28;123877;-63
2022/03/06 04:16:53;;;;;;;23.50;10.20;;;;;;;3.50;46.60;102381.00;5012016;28;123730;-63
2022/03/06 04:19:20;;;;;;;23.95;10.93;;;;;;;3.48;46.82;102382.75;5013454;28;109459;-62
2022/03/06 04:21:47;;;;;;;19.80;10.45;;;;;;;3.45;46.88;102380.13;5013166;28;109826;-63
2022/03/06 04:24:15;;;;;;;21.98;11.20;;;;;;;3.42;46.83;102387.94;5014890;28;123964;-62
2022/03/06 04:26:42;;;;;;;21.65;10.70;;;;;;;3.40;46.71;102389.66;5014097;28;124246;-63
2022/03/06 04:29:09;;;;;;;21.60;9.80;;;;;;;3.37;46.71;102384.38;5014699;28;110298;-63
2022/03/06 04:31:36;;;;;;;22.48;11.18;;;;;;;3.37;46.95;102400.09;5012427;28;109791;-62
2022/03/06 04:34:03;;;;;;;23.17;10.52;;;;;;;3.35;47.06;102396.59;5013182;28;124253;-63
2022/03/06 04:36:31;;;;;;;21.42;10.80;;;;;;;3.33;47.01;102393.94;5011890;28;124479;-62
2022/03/06 04:38:58;;;;;;;24.75;11.60;;;;;;;3.29;47.01;102393.03;5014307;28;109414;-62
2022/03/06 04:41:25;;;;;;;23.42;11.13;;;;;;;3.30;47.17;102400.03;5011441;28;110023;-62
2022/03/06 04:43:52;;;;;;;23.20;10.73;;;;;;;3.28;46.96;102412.25;5013895;28;123980;-62
2022/03/06 04:46:20;;;;;;;19.60;10.25;;;;;;;3.26;47.08;102405.25;5011886;28;123799;-62
2022/03/06 04:48:48;;;;;;;23.80;11.02;;;;;;;3.25;47.01;102412.19;5013420;28;109381;-62
2022/03/06 04:51:15;;;;;;;20.67;10.30;;;;;;;3.22;47.20;102417.44;5011513;28;110000;-62
2022/03/06 04:53:42;;;;;;;21.77;9.93;;;;;;;3.21;47.04;102420.03;5013304;28;123786;-61
2022/03/06 04:56:10;;;;;;;22.40;11.30;;;;;;;3.19;47.12;102422.63;5011578;28;123715;-61
2022/03/06 04:58:37;;;;;;;23.20;10.77;;;;;;;3.18;47.15;102425.22;5011836;28;109331;-61
2022/03/06 05:01:05;;;;;;;20.30;10.65;;;;;;;3.15;47.16;102426.06;5012247;28;110302;-61
2022/03/06 05:03:33;;;;;;;22.77;10.70;;;;;;;3.13;47.14;102430.41;5013100;28;123746;-61
2022/03/06 05:06:00;;;;;;;19.35;10.13;;;;;;;3.11;47.17;102445.22;5013254;28;124058;-61
2022/03/06 05:08:28;;;;;;;22.35;10.02;;;;;;;3.08;47.36;102434.69;5014262;28;109372;-61
2022/03/06 05:10:55;;;;;;;20.92;10.25;;;;;;;3.08;47.07;102445.19;5009032;28;110445;-62
2022/03/06 05:13:23;;;;;;;20.83;9.77;;;;;;;3.07;47.44;102439.06;5013098;28;122911;-61
2022/03/06 05:15:51;;;;;;;20.85;10.15;;;;;;;3.08;47.32;102442.56;5011359;28;124674;-61
2022/03/06 05:18:19;;;;;;;23.70;10.35;;;;;;;3.07;47.33;102438.16;5011257;28;109968;-61
2022/03/06 05:20:47;;;;;;;21.42;10.25;;;;;;;3.06;47.32;102446.91;5013164;28;110167;-61
2022/03/06 05:23:14;;;;;;;19.27;10.15;;;;;;;3.05;47.18;102450.38;5013319;28;124164;-61
2022/03/06 05:25:42;;;;;;;22.42;10.65;;;;;;;3.03;47.45;102441.63;5011409;28;124046;-61
2022/03/06 05:28:09;;;;;;;21.35;10.68;;;;;;;3.02;47.40;102455.56;5011365;28;109476;-62
2022/03/06 05:30:36;;;;;;;19.50;10.00;;;;;;;3.01;47.51;102451.19;5010789;28;110042;-62
2022/03/06 05:33:04;;;;;;;21.23;10.63;;;;;;;3.01;47.60;102459.03;5012572;28;123828;-62
2022/03/06 05:35:31;;;;;;;19.63;10.50;;;;;;;3.00;47.87;102452.06;5012972;28;122722;-62
2022/03/06 05:37:59;;;;;;;18.65;9.68;;;;;;;3.01;47.90;102453.81;5014138;28;109177;-62
2022/03/06 05:40:26;;;;;;;21.20;10.05;;;;;;;3.02;47.88;102460.81;5010939;28;109493;-62
2022/03/06 05:42:53;;;;;;;19.15;9.60;;;;;;;3.04;47.71;102459.09;5010353;28;124203;-62
2022/03/06 05:45:21;;;;;;;19.02;10.10;;;;;;;3.04;47.89;102459.09;5013059;28;122648;-62
2022/03/06 05:47:48;;;;;;;18.77;10.27;;;;;;;3.05;47.62;102466.06;5012755;28;108381;-62
2022/03/06 05:50:15;;;;;;;21.02;10.00;;;;;;;3.04;47.88;102469.56;5010494;28;109732;-62
2022/03/06 05:52:42;;;;;;;19.88;10.20;;;;;;;3.04;47.74;102466.94;5010195;28;123829;-62
2022/03/06 05:55:10;;;;;;;19.92;9.77;;;;;;;3.03;47.59;102467.78;5010258;28;124553;-62
2022/03/06 05:57:37;;;;;;;20.60;10.15;;;;;;;3.02;47.52;102471.28;5011128;28;109627;-62
2022/03/06 06:00:08;;;;;;;19.58;10.20;;;;;;;3.02;47.88;102471.28;5011651;28;110088;-62
2022/03/06 06:02:36;;;;;;;19.55;9.98;;;;;;;3.02;47.62;102477.38;5011947;28;123969;-62
2022/03/06 06:05:05;;;;;;;21.58;10.95;;;;;;;3.04;47.63;102477.41;5009588;28;124230;-62
2022/03/06 06:07:33;;;;;;;18.73;10.05;;;;;;;3.03;47.70;102483.50;5009962;28;110030;-62
2022/03/06 06:10:00;;;;;;;23.23;10.50;;;;;;;3.02;47.67;102487.00;5008184;28;109687;-62
2022/03/06 06:12:28;;;;;;;17.98;9.73;;;;;;;3.00;47.45;102488.72;5010422;28;124516;-62
2022/03/06 06:14:55;;;;;;;20.95;10.80;;;;;;;2.98;47.64;102490.44;5010665;28;123917;-62
2022/03/06 06:17:22;;;;;;;20.33;9.23;;;;;;;2.97;47.40;102489.53;5011996;28;108485;-61
2022/03/06 06:19:49;;;;;;;21.60;10.50;;;;;;;2.98;47.70;102485.19;5009186;28;109628;-61
2022/03/06 06:22:17;;;;;;;21.00;10.13;;;;;;;2.97;47.73;102486.03;5010693;28;124852;-62
2022/03/06 06:24:44;;;;;;;20.13;9.95;;;;;;;2.97;47.78;102493.88;5010589;28;124988;-62
2022/03/06 06:27:11;;;;;;;22.73;8.98;;;;;;;2.97;47.76;102493.88;5013481;28;109161;-63
2022/03/06 06:29:39;;;;;;;22.92;10.13;;;;;;;2.98;47.74;102506.13;5010579;28;109704;-62
2022/03/06 06:32:06;;;;;;;19.42;10.45;;;;;;;2.97;47.76;102506.97;5012153;28;124647;-63
2022/03/06 06:34:33;;;;;;;19.77;9.73;;;;;;;2.98;47.80;102503.50;5012103;28;123412;-63
2022/03/06 06:37:02;;;;;;;18.90;9.27;;;;;;;3.01;47.70;102511.38;5011034;28;109169;-63
2022/03/06 06:39:30;;;;;;;24.27;9.80;;;;;;;3.01;47.74;102516.63;5012755;28;109646;-62
2022/03/06 06:41:57;;;;;;;20.45;10.48;;;;;;;3.02;47.95;102507.94;5011483;28;122971;-63
2022/03/06 06:44:24;;;;;;;20.85;9.60;;;;;;;3.03;48.19;102512.28;5011532;28;124025;-63
2022/03/06 06:46:51;;;;;;;19.67;9.75;;;;;;;3.06;47.78;102514.94;5010736;28;109005;-62
2022/03/06 06:49:20;;;;;;;21.98;10.15;;;;;;;3.06;47.68;102525.41;5011279;28;108845;-63
2022/03/06 06:51:47;;;;;;;22.38;10.38;;;;;;;3.07;48.17;102528.06;5009237;28;124869;-62
2022/03/06 06:54:15;;;;;;;17.42;9.00;;;;;;;3.09;47.79;102530.72;5012794;28;124207;-62
2022/03/06 06:56:43;;;;;;;17.23;9.35;;;;;;;3.11;47.97;102534.22;5010125;28;110080;-63
2022/03/06 06:59:13;;;;;;;19.23;9.95;;;;;;;3.16;47.82;102532.53;5013397;28;109646;-63
2022/03/06 07:01:41;;;;;;;21.13;10.02;;;;;;;3.22;48.05;102537.88;5009439;28;123808;-63
2022/03/06 07:04:09;;;;;;;20.15;10.38;;;;;;;3.31;48.12;102544.94;5012652;28;123782;-63
2022/03/06 07:06:36;;;;;;;21.10;9.75;;;;;;;3.40;47.95;102547.66;5010346;28;109691;-63
2022/03/06 07:09:03;;;;;;;20.45;10.57;;;;;;;3.48;48.13;102551.28;5012854;28;109343;-61
2022/03/06 07:11:31;;;;;;;20.02;10.00;;;;;;;3.56;48.20;102548.75;5008992;28;124082;-60
2022/03/06 07:13:58;;;;;;;18.27;9.23;;;;;;;3.64;48.24;102541.84;5012388;28;124888;-61
2022/03/06 07:16:31;;;;;;;20.20;9.90;;;;;;;3.70;48.08;102539.28;5010482;28;108930;-61
2022/03/06 07:18:59;;;;;;;18.13;9.07;;;;;;;3.76;48.24;102546.34;5012059;28;108711;-62
2022/03/06 07:21:26;;;;;;;19.08;9.90;;;;;;;3.83;48.05;102542.06;5008895;28;123954;-62
2022/03/06 07:23:53;;;;;;;18.40;9.50;;;;;;;3.89;47.96;102555.22;5012392;28;124027;-62
2022/03/06 07:26:21;;;;;;;21.58;10.02;;;;;;;3.95;48.11;102559.63;5011740;28;109705;-62
2022/03/06 07:28:48;;;;;;;18.83;10.05;;;;;;;4.02;48.02;102559.72;5010173;28;110880;-62
2022/03/06 07:31:15;;;;;;;19.35;9.77;;;;;;;4.08;48.15;102559.75;5010391;28;124146;-62
2022/03/06 07:33:42;;;;;;;16.83;9.55;;;;;;;4.12;48.04;102562.41;5012738;28;123842;-61
2022/03/06 07:36:09;;;;;;;18.10;9.93;;;;;;;4.15;47.86;102571.19;5015935;28;109224;-61
2022/03/06 07:38:37;;;;;;;18.20;9.60;;;;;;;4.18;47.89;102575.56;5015519;28;108771;-60
2022/03/06 07:41:04;;;;;;;19.27;9.77;;;;;;;4.22;48.01;102579.97;5012426;28;124319;-61
2022/03/06 07:43:31;;;;;;;20.92;9.60;;;;;;;4.27;47.83;102586.16;5014839;28;123070;-60
2022/03/06 07:45:58;;;;;;;17.40;9.65;;;;;;;4.29;47.87;102589.66;5013035;28;110251;-61
2022/03/06 07:48:25;;;;;;;20.20;10.25;;;;;;;4.33;48.01;102580.97;5015427;28;110193;-60
2022/03/06 07:50:53;;;;;;;18.52;9.77;;;;;;;4.37;47.94;102588.03;5014527;28;124906;-61
2022/03/06 07:53:20;;;;;;;19.40;9.80;;;;;;;4.41;47.90;102600.28;5014074;28;124078;-61
2022/03/06 07:55:47;;;;;;;19.25;9.90;;;;;;;4.42;48.01;102596.78;5013270;28;109349;-60
2022/03/06 07:58:14;;;;;;;20.90;10.35;;;;;;;4.45;47.90;102601.19;5012302;28;109174;-61
2022/03/06 08:00:42;;;;;;;18.27;9.65;;;;;;;4.48;47.89;102602.09;5013623;28;124323;-61
2022/03/06 08:03:09;;;;;;;17.52;9.40;;;;;;;4.51;48.04;102597.75;5014685;28;123301;-60
2022/03/06 08:05:37;;;;;;;22.23;9.80;;;;;;;4.52;48.03;102592.53;5012019;28;109263;-61
2022/03/06 08:08:04;;;;;;;19.50;9.82;;;;;;;4.55;48.01;102602.16;5013490;28;109003;-62
2022/03/06 08:10:32;;;;;;;16.55;9.95;;;;;;;4.59;47.85;102603.94;5013816;27;123071;-62
2022/03/06 08:12:59;;;;;;;18.27;9.77;;;;;;;4.61;48.15;102602.19;5015719;28;123420;-61
2022/03/06 08:15:26;;;;;;;21.25;10.32;;;;;;;4.63;47.95;102603.97;5015265;28;109251;-61
2022/03/06 08:17:53;;;;;;;16.20;9.15;;;;;;;4.68;48.12;102614.50;5012861;28;110316;-62
2022/03/06 08:20:20;;;;;;;17.50;9.82;;;;;;;4.71;48.19;102617.16;5011604;28;124293;-62
2022/03/06 08:22:48;;;;;;;18.48;10.05;;;;;;;4.77;48.21;102608.47;5013448;28;123826;-62
2022/03/06 08:25:15;;;;;;;20.33;9.80;;;;;;;4.81;48.21;102616.34;5013756;28;109221;-62
2022/03/06 08:27:42;;;;;;;19.50;9.05;;;;;;;4.85;47.95;102618.13;5013191;28;108935;-62
2022/03/06 08:30:09;;;;;;;17.77;9.43;;;;;;;4.91;48.08;102616.44;5012198;28;124614;-62
2022/03/06 08:32:37;;;;;;;19.60;10.18;;;;;;;4.94;47.94;102621.72;5014764;28;124516;-62
2022/03/06 08:35:06;;;;;;;17.25;9.75;;;;;;;4.98;48.18;102628.72;5012411;28;111123;-62
2022/03/06 08:37:33;;;;;;;17.50;9.35;;;;;;;5.01;48.11;102618.22;5013289;28;109915;-62
2022/03/06 08:40:00;;;;;;;18.15;9.85;;;;;;;5.06;47.99;102621.78;5012818;28;124821;-62
2022/03/06 08:42:27;;;;;;;19.63;9.48;;;;;;;5.14;47.96;102625.34;5013882;28;124233;-62
2022/03/06 08:44:55;;;;;;;17.85;10.10;;;;;;;5.18;48.12;102632.38;5014930;28;109518;-62
2022/03/06 08:47:22;;;;;;;19.65;9.68;;;;;;;5.23;48.45;102635.88;5015045;28;110471;-62
2022/03/06 08:49:49;;;;;;;16.65;9.52;;;;;;;5.29;48.10;102631.53;5011848;28;124430;-62
2022/03/06 08:52:16;;;;;;;18.05;9.90;;;;;;;5.35;48.12;102628.94;5012974;28;124319;-62
2022/03/06 08:54:43;;;;;;;16.88;9.35;;;;;;;5.40;48.16;102632.47;5014269;28;108353;-62
2022/03/06 08:57:10;;;;;;;18.42;9.27;;;;;;;5.46;48.01;102627.25;5014445;28;107843;-62
2022/03/06 08:59:38;;;;;;;17.23;9.35;;;;;;;5.52;48.03;102636.91;5013605;28;124388;-62
2022/03/06 09:02:05;;;;;;;16.52;9.30;;;;;;;5.58;48.27;102624.69;5013896;28;123709;-62
2022/03/06 09:04:33;;;;;;;18.42;9.77;;;;;;;5.65;48.29;102634.38;5012484;28;109152;-63
2022/03/06 09:07:00;;;;;;;17.45;9.48;;;;;;;5.71;48.06;102628.25;5013607;28;109412;-62
2022/03/06 09:09:28;;;;;;;14.88;8.75;;;;;;;5.77;48.09;102627.41;5013621;28;124750;-62
2022/03/06 09:11:55;;;;;;;16.08;9.15;;;;;;;5.83;48.12;102632.69;5013142;28;125300;-62
2022/03/06 09:14:22;;;;;;;15.95;8.60;;;;;;;5.88;47.96;102630.97;5015315;28;109069;-62
2022/03/06 09:16:49;;;;;;;17.08;9.90;;;;;;;5.93;48.15;102634.44;5014210;28;108591;-62
2022/03/06 09:19:17;;;;;;;15.32;8.55;;;;;;;5.99;48.05;102639.78;5012600;28;124774;-62
2022/03/06 09:21:45;;;;;;;15.20;8.70;;;;;;;6.04;48.13;102624.88;5012144;28;124117;-62
2022/03/06 09:24:12;;;;;;;14.95;8.68;;;;;;;6.11;47.90;102627.53;5013031;28;109575;-62
2022/03/06 09:26:40;;;;;;;14.65;8.75;;;;;;;6.16;47.90;102633.66;5014013;28;110231;-62
2022/03/06 09:29:07;;;;;;;15.13;8.90;;;;;;;6.20;47.78;102638.97;5010145;28;124404;-62
2022/03/06 09:31:34;;;;;;;14.20;8.30;;;;;;;6.24;48.02;102647.75;5011383;28;124460;-64
2022/03/06 09:34:02;;;;;;;14.40;8.93;;;;;;;6.29;47.85;102643.38;5014144;28;109993;-64
2022/03/06 09:36:45;;;;;;;14.52;8.55;;;;;;;6.37;47.96;102640.75;5013985;28;108722;-64
2022/03/06 09:39:13;;;;;;;13.70;8.38;;;;;;;6.46;48.03;102639.88;5013668;28;123841;-64
2022/03/06 09:41:40;;;;;;;15.98;9.18;;;;;;;6.51;47.82;102640.75;5010804;28;124826;-64
2022/03/06 09:44:10;;;;;;;13.55;8.45;;;;;;;6.57;48.09;102648.66;5014612;28;109731;-65
2022/03/06 09:46:39;;;;;;;14.45;9.25;;;;;;;6.64;48.12;102639.88;5011886;28;109357;-64
2022/03/06 09:49:08;;;;;;;15.75;8.77;;;;;;;6.73;47.80;102644.28;5010749;28;124022;-64
2022/03/06 09:51:40;;;;;;;13.98;8.50;;;;;;;6.81;48.10;102638.13;5012706;28;123877;-64
2022/03/06 09:54:09;;;;;;;13.60;8.10;;;;;;;6.89;47.88;102629.34;5014041;28;109482;-64
2022/03/06 09:56:36;;;;;;;15.68;7.85;;;;;;;6.97;48.11;102640.78;5011833;28;109049;-64
2022/03/06 09:59:04;;;;;;;14.48;7.75;;;;;;;7.04;47.99;102631.97;5011022;28;124576;-63
2022/03/06 10:01:32;;;;;;;15.88;8.68;;;;;;;7.12;47.61;102643.38;5011801;28;124398;-63
2022/03/06 10:04:21;;;;;;;14.77;8.77;;;;;;;7.16;47.79;102631.94;5013868;28;109534;-63
2022/03/06 10:07:04;;;;;;;14.02;7.97;;;;;;;7.22;47.71;102638.97;5012033;28;109619;-61
2022/03/06 10:09:34;;;;;;;12.80;7.75;;;;;;;7.28;47.84;102635.44;5010572;28;124761;-61
2022/03/06 10:12:01;;;;;;;12.68;7.63;;;;;;;7.35;47.50;102640.69;5010476;28;123759;-61
2022/03/06 10:14:40;;;;;;;14.48;8.55;;;;;;;7.44;47.47;102634.53;5012824;28;109955;-61
2022/03/06 10:17:15;;;;;;;16.48;8.68;;;;;;;7.51;47.51;102636.22;5013148;28;109619;-61
2022/03/06 10:20:04;;;;;;;14.15;7.97;;;;;;;7.60;47.35;102630.94;5012248;28;123189;-60
2022/03/06 10:22:34;;;;;;;14.85;7.68;;;;;;;7.68;47.59;102632.66;5012090;28;122971;-61
2022/03/06 10:25:16;;;;;;;13.25;7.65;;;;;;;7.73;47.30;102625.63;5011140;28;109509;-61
2022/03/06 10:27:46;;;;;;;11.27;7.63;;;;;;;7.82;47.55;102630.84;5011567;28;108871;-61
2022/03/06 10:30:32;;;;;;;12.65;7.88;;;;;;;7.89;47.29;102627.31;5010885;28;124538;-61
2022/03/06 10:33:05;;;;;;;12.38;7.90;;;;;;;7.97;47.31;102635.19;5012238;28;124499;-61
2022/03/06 10:35:37;;;;;;;12.10;7.45;;;;;;;8.05;47.31;102627.22;5012904;28;108585;-61
2022/03/06 10:38:23;;;;;;;13.57;7.57;;;;;;;8.12;47.12;102626.31;5011376;28;108976;-61
2022/03/06 10:40:50;;;;;;;15.05;7.40;;;;;;;8.21;47.06;102633.25;5010496;28;123838;-62
2022/03/06 10:43:20;;;;;;;12.13;7.20;;;;;;;8.29;47.12;102632.34;5012265;28;124000;-61
2022/03/06 10:45:49;;;;;;;13.43;7.65;;;;;;;8.39;46.78;102628.75;5013243;28;109257;-61
2022/03/06 10:48:17;;;;;;;11.43;7.32;;;;;;;8.51;47.07;102626.94;5013735;28;108848;-61
2022/03/06 10:50:44;;;;;;;10.75;7.20;;;;;;;8.62;46.66;102624.22;5009571;28;124467;-61
2022/03/06 10:53:19;;;;;;;11.20;7.57;;;;;;;8.71;46.68;102625.00;5011661;28;124457;-62
2022/03/06 10:55:47;;;;;;;13.90;7.85;;;;;;;8.81;46.70;102620.50;5010566;28;109107;-61
2022/03/06 10:58:14;;;;;;;11.27;7.07;;;;;;;8.93;46.71;102616.91;5010837;28;108909;-61
2022/03/06 11:00:41;;;;;;;13.35;7.78;;;;;;;9.03;46.21;102618.56;5009194;28;123958;-61
2022/03/06 11:03:12;;;;;;;11.48;7.68;;;;;;;9.12;46.11;102610.53;5011195;28;122765;-61
2022/03/06 11:05:44;;;;;;;11.38;7.40;;;;;;;9.17;45.48;102607.81;5009912;28;110344;-62
2022/03/06 11:08:15;;;;;;;13.52;7.57;;;;;;;9.23;45.36;102606.88;5012217;28;110370;-62
2022/03/06 11:10:43;;;;;;;12.25;8.13;;;;;;;9.31;45.81;102620.91;5015253;28;124226;-61
2022/03/06 11:13:14;;;;;;;12.40;7.57;;;;;;;9.37;45.51;102615.53;5016200;28;124603;-61
2022/03/06 11:15:42;;;;;;;11.02;7.13;;;;;;;9.44;45.37;102611.94;5015727;28;108139;-61